sensor_id;sensor_type;location;lat;lon;timestamp;pressure;altitude;pressure_sealevel;temperature;humidity
8366;BME280;4220;42.502;24.188;2023-09-19T00:01:39;95753.81;;;16.73;100.00
8366;BME280;4220;42.502;24.188;2023-09-19T00:04:08;95747.63;;;16.72;100.00
8366;BME280;4220;42.502;24.188;2023-09-19T00:06:36;95750.63;;;16.76;100.00
8366;BME280;4220;42.502;24.188;2023-09-19T00:09:03;95738.50;;;16.73;100.00
8366;BME280;4220;42.502;24.188;2023-09-19T00:11:30;95740.31;;;16.68;100.00
8366;BME280;4220;42.502;24.188;2023-09-19T00:13:57;95730.41;;;16.68;100.00
8366;BME280;4220;42.502;24.188;2023-09-19T00:16:25;95730.34;;;16.63;100.00
8366;BME280;4220;42.502;24.188;2023-09-19T00:18:52;95737.69;;;16.56;100.00
8366;BME280;4220;42.502;24.188;2023-09-19T00:21:20;95736.66;;;16.57;100.00
8366;BME280;4220;42.502;24.188;2023-09-19T00:23:47;95735.84;;;16.57;100.00
8366;BME280;4220;42.502;24.188;2023-09-19T00:26:14;95736.41;;;16.59;100.00
8366;BME280;4220;42.502;24.188;2023-09-19T00:28:43;95740.88;;;16.53;100.00
8366;BME280;4220;42.502;24.188;2023-09-19T00:31:10;95741.78;;;16.30;100.00
8366;BME280;4220;42.502;24.188;2023-09-19T00:33:37;95728.13;;;16.15;100.00
8366;BME280;4220;42.502;24.188;2023-09-19T00:36:04;95724.41;;;16.16;100.00
8366;BME280;4220;42.502;24.188;2023-09-19T00:38:32;95724.22;;;16.06;100.00
8366;BME280;4220;42.502;24.188;2023-09-19T00:40:59;95730.72;;;16.10;100.00
8366;BME280;4220;42.502;24.188;2023-09-19T00:43:27;95725.28;;;16.22;100.00
8366;BME280;4220;42.502;24.188;2023-09-19T00:45:55;95725.66;;;16.25;100.00
8366;BME280;4220;42.502;24.188;2023-09-19T00:48:23;95719.84;;;16.17;100.00
8366;BME280;4220;42.502;24.188;2023-09-19T00:50:54;95683.34;;;15.94;100.00
8366;BME280;4220;42.502;24.188;2023-09-19T00:53:24;95724.50;;;16.21;100.00
8366;BME280;4220;42.502;24.188;2023-09-19T00:55:54;95719.72;;;16.23;100.00
8366;BME280;4220;42.502;24.188;2023-09-19T00:58:21;95714.94;;;16.25;100.00
8366;BME280;4220;42.502;24.188;2023-09-19T01:00:48;95713.09;;;16.43;100.00
8366;BME280;4220;42.502;24.188;2023-09-19T01:03:16;95708.22;;;16.40;100.00
8366;BME280;4220;42.502;24.188;2023-09-19T01:05:43;95701.91;;;16.46;100.00
8366;BME280;4220;42.502;24.188;2023-09-19T01:08:10;95711.81;;;16.62;100.00
8366;BME280;4220;42.502;24.188;2023-09-19T01:10:43;95712.47;;;16.69;100.00
8366;BME280;4220;42.502;24.188;2023-09-19T01:13:22;95712.06;;;16.77;100.00
8366;BME280;4220;42.502;24.188;2023-09-19T01:15:59;95713.78;;;16.83;100.00
8366;BME280;4220;42.502;24.188;2023-09-19T01:18:37;95711.50;;;16.75;100.00
8366;BME280;4220;42.502;24.188;2023-09-19T01:21:11;95709.47;;;16.65;100.00
8366;BME280;4220;42.502;24.188;2023-09-19T01:24:05;95719.28;;;16.60;100.00
8366;BME280;4220;42.502;24.188;2023-09-19T01:26:52;95711.75;;;16.57;100.00
8366;BME280;4220;42.502;24.188;2023-09-19T01:29:33;95707.34;;;16.51;100.00
8366;BME280;4220;42.502;24.188;2023-09-19T01:32:06;95689.56;;;16.28;100.00
8366;BME280;4220;42.502;24.188;2023-09-19T01:34:45;95712.03;;;16.44;100.00
8366;BME280;4220;42.502;24.188;2023-09-19T01:37:14;95704.72;;;16.39;100.00
8366;BME280;4220;42.502;24.188;2023-09-19T01:39:45;95709.75;;;16.35;100.00
8366;BME280;4220;42.502;24.188;2023-09-19T01:42:19;95697.66;;;16.33;100.00
8366;BME280;4220;42.502;24.188;2023-09-19T01:44:58;95692.22;;;16.28;100.00
8366;BME280;4220;42.502;24.188;2023-09-19T01:47:33;95702.59;;;16.24;100.00
8366;BME280;4220;42.502;24.188;2023-09-19T01:50:12;95695.72;;;16.28;100.00
8366;BME280;4220;42.502;24.188;2023-09-19T01:52:47;95692.47;;;16.26;100.00
8366;BME280;4220;42.502;24.188;2023-09-19T01:55:16;95701.31;;;16.27;100.00
8366;BME280;4220;42.502;24.188;2023-09-19T01:57:49;95701.47;;;16.20;100.00
8366;BME280;4220;42.502;24.188;2023-09-19T02:00:20;95694.47;;;16.19;100.00
8366;BME280;4220;42.502;24.188;2023-09-19T02:02:50;95696.03;;;16.15;100.00
8366;BME280;4220;42.502;24.188;2023-09-19T02:05:23;95667.94;;;15.73;100.00
8366;BME280;4220;42.502;24.188;2023-09-19T02:07:51;95702.06;;;15.94;100.00
8366;BME280;4220;42.502;24.188;2023-09-19T02:10:18;95668.09;;;15.66;100.00
8366;BME280;4220;42.502;24.188;2023-09-19T02:12:45;95692.75;;;15.97;100.00
8366;BME280;4220;42.502;24.188;2023-09-19T02:15:13;95687.72;;;16.00;100.00
8366;BME280;4220;42.502;24.188;2023-09-19T02:17:41;95702.00;;;16.06;100.00
8366;BME280;4220;42.502;24.188;2023-09-19T02:20:10;95699.91;;;16.08;100.00
8366;BME280;4220;42.502;24.188;2023-09-19T02:22:40;95699.41;;;16.11;100.00
8366;BME280;4220;42.502;24.188;2023-09-19T02:25:07;95697.06;;;16.14;100.00
8366;BME280;4220;42.502;24.188;2023-09-19T02:27:34;95666.78;;;15.97;100.00
8366;BME280;4220;42.502;24.188;2023-09-19T02:30:03;95700.81;;;16.13;100.00
8366;BME280;4220;42.502;24.188;2023-09-19T02:32:31;95691.22;;;16.01;100.00
8366;BME280;4220;42.502;24.188;2023-09-19T02:35:01;95681.44;;;15.95;100.00
8366;BME280;4220;42.502;24.188;2023-09-19T02:37:31;95684.22;;;16.00;100.00
8366;BME280;4220;42.502;24.188;2023-09-19T02:39:58;95680.50;;;16.01;100.00
8366;BME280;4220;42.502;24.188;2023-09-19T02:42:25;95674.91;;;16.02;100.00
8366;BME280;4220;42.502;24.188;2023-09-19T02:44:52;95674.59;;;15.99;100.00
8366;BME280;4220;42.502;24.188;2023-09-19T02:47:19;95657.38;;;15.95;100.00
8366;BME280;4220;42.502;24.188;2023-09-19T02:49:46;95648.38;;;15.84;100.00
8366;BME280;4220;42.502;24.188;2023-09-19T02:52:13;95680.06;;;15.92;100.00
8366;BME280;4220;42.502;24.188;2023-09-19T02:54:41;95674.66;;;15.87;100.00
8366;BME280;4220;42.502;24.188;2023-09-19T02:57:11;95677.94;;;15.78;100.00
8366;BME280;4220;42.502;24.188;2023-09-19T02:59:39;95664.75;;;15.59;100.00
8366;BME280;4220;42.502;24.188;2023-09-19T03:02:07;95665.94;;;15.52;100.00
8366;BME280;4220;42.502;24.188;2023-09-19T03:04:35;95654.72;;;15.27;100.00
8366;BME280;4220;42.502;24.188;2023-09-19T03:07:05;95645.31;;;15.24;100.00
8366;BME280;4220;42.502;24.188;2023-09-19T03:09:52;95645.66;;;15.28;100.00
8366;BME280;4220;42.502;24.188;2023-09-19T03:12:23;95659.81;;;15.40;100.00
8366;BME280;4220;42.502;24.188;2023-09-19T03:14:54;95651.78;;;15.40;100.00
8366;BME280;4220;42.502;24.188;2023-09-19T03:17:21;95636.47;;;15.24;100.00
8366;BME280;4220;42.502;24.188;2023-09-19T03:19:48;95623.41;;;15.11;100.00
8366;BME280;4220;42.502;24.188;2023-09-19T03:22:15;95646.59;;;15.22;100.00
8366;BME280;4220;42.502;24.188;2023-09-19T03:24:42;95630.63;;;14.98;100.00
8366;BME280;4220;42.502;24.188;2023-09-19T03:27:12;95646.06;;;14.96;100.00
8366;BME280;4220;42.502;24.188;2023-09-19T03:29:41;95613.25;;;14.61;100.00
8366;BME280;4220;42.502;24.188;2023-09-19T03:32:08;95653.53;;;14.83;100.00
8366;BME280;4220;42.502;24.188;2023-09-19T03:34:36;95628.34;;;14.67;100.00
8366;BME280;4220;42.502;24.188;2023-09-19T03:37:06;95638.78;;;14.80;100.00
8366;BME280;4220;42.502;24.188;2023-09-19T03:39:33;95653.75;;;14.93;100.00
8366;BME280;4220;42.502;24.188;2023-09-19T03:42:00;95653.03;;;14.97;100.00
8366;BME280;4220;42.502;24.188;2023-09-19T03:44:29;95660.13;;;14.92;100.00
8366;BME280;4220;42.502;24.188;2023-09-19T03:46:56;95661.19;;;14.68;100.00
8366;BME280;4220;42.502;24.188;2023-09-19T03:49:23;95656.31;;;14.42;100.00
8366;BME280;4220;42.502;24.188;2023-09-19T03:51:50;95655.66;;;14.16;100.00
8366;BME280;4220;42.502;24.188;2023-09-19T03:54:17;95649.31;;;14.17;100.00
8366;BME280;4220;42.502;24.188;2023-09-19T03:56:44;95658.03;;;14.36;100.00
8366;BME280;4220;42.502;24.188;2023-09-19T03:59:12;95661.91;;;14.52;100.00
8366;BME280;4220;42.502;24.188;2023-09-19T04:01:40;95666.19;;;14.64;100.00
8366;BME280;4220;42.502;24.188;2023-09-19T04:04:08;95667.91;;;14.70;100.00
8366;BME280;4220;42.502;24.188;2023-09-19T04:06:35;95662.09;;;14.50;100.00
8366;BME280;4220;42.502;24.188;2023-09-19T04:09:02;95675.28;;;14.22;100.00
8366;BME280;4220;42.502;24.188;2023-09-19T04:11:32;95664.81;;;14.20;100.00
8366;BME280;4220;42.502;24.188;2023-09-19T04:13:59;95666.41;;;14.39;100.00
8366;BME280;4220;42.502;24.188;2023-09-19T04:16:26;95660.63;;;14.54;100.00
8366;BME280;4220;42.502;24.188;2023-09-19T04:18:54;95657.84;;;14.49;100.00
8366;BME280;4220;42.502;24.188;2023-09-19T04:21:21;95677.09;;;14.51;100.00
8366;BME280;4220;42.502;24.188;2023-09-19T04:23:47;95673.22;;;14.35;100.00
8366;BME280;4220;42.502;24.188;2023-09-19T04:26:14;95657.22;;;14.35;100.00
8366;BME280;4220;42.502;24.188;2023-09-19T04:28:42;95661.66;;;14.42;100.00
8366;BME280;4220;42.502;24.188;2023-09-19T04:31:09;95661.06;;;14.51;100.00
8366;BME280;4220;42.502;24.188;2023-09-19T04:33:37;95667.59;;;14.67;100.00
8366;BME280;4220;42.502;24.188;2023-09-19T04:36:05;95670.25;;;14.78;100.00
8366;BME280;4220;42.502;24.188;2023-09-19T04:38:33;95666.16;;;14.87;100.00
8366;BME280;4220;42.502;24.188;2023-09-19T04:41:00;95679.19;;;14.72;100.00
8366;BME280;4220;42.502;24.188;2023-09-19T04:43:27;95672.91;;;14.55;100.00
8366;BME280;4220;42.502;24.188;2023-09-19T04:45:54;95670.34;;;14.37;100.00
8366;BME280;4220;42.502;24.188;2023-09-19T04:48:21;95676.97;;;14.46;100.00
8366;BME280;4220;42.502;24.188;2023-09-19T04:50:50;95672.66;;;14.45;100.00
8366;BME280;4220;42.502;24.188;2023-09-19T04:53:18;95680.97;;;14.25;100.00
8366;BME280;4220;42.502;24.188;2023-09-19T04:55:50;95637.09;;;14.10;100.00
8366;BME280;4220;42.502;24.188;2023-09-19T04:58:18;95685.88;;;14.40;100.00
8366;BME280;4220;42.502;24.188;2023-09-19T05:00:45;95671.19;;;14.49;100.00
8366;BME280;4220;42.502;24.188;2023-09-19T05:03:12;95662.34;;;14.60;100.00
8366;BME280;4220;42.502;24.188;2023-09-19T05:05:39;95668.72;;;14.82;100.00
8366;BME280;4220;42.502;24.188;2023-09-19T05:08:06;95665.25;;;14.93;100.00
8366;BME280;4220;42.502;24.188;2023-09-19T05:10:36;95683.56;;;15.13;100.00
8366;BME280;4220;42.502;24.188;2023-09-19T05:13:03;95684.69;;;15.29;100.00
8366;BME280;4220;42.502;24.188;2023-09-19T05:15:30;95686.06;;;15.43;100.00
8366;BME280;4220;42.502;24.188;2023-09-19T05:17:57;95680.13;;;15.52;100.00
8366;BME280;4220;42.502;24.188;2023-09-19T05:20:24;95620.69;;;15.22;100.00
8366;BME280;4220;42.502;24.188;2023-09-19T05:22:58;95678.19;;;15.48;100.00
8366;BME280;4220;42.502;24.188;2023-09-19T05:25:27;95685.06;;;15.72;100.00
8366;BME280;4220;42.502;24.188;2023-09-19T05:27:57;95688.72;;;15.83;100.00
8366;BME280;4220;42.502;24.188;2023-09-19T05:30:25;95687.41;;;15.97;100.00
8366;BME280;4220;42.502;24.188;2023-09-19T05:32:53;95668.06;;;15.95;100.00
8366;BME280;4220;42.502;24.188;2023-09-19T05:35:20;95676.06;;;16.06;100.00
8366;BME280;4220;42.502;24.188;2023-09-19T05:37:48;95671.84;;;16.10;100.00
8366;BME280;4220;42.502;24.188;2023-09-19T05:40:16;95686.53;;;16.24;100.00
8366;BME280;4220;42.502;24.188;2023-09-19T05:42:43;95689.72;;;16.38;100.00
8366;BME280;4220;42.502;24.188;2023-09-19T05:45:12;95677.41;;;16.54;100.00
8366;BME280;4220;42.502;24.188;2023-09-19T05:47:39;95672.22;;;16.64;100.00
8366;BME280;4220;42.502;24.188;2023-09-19T05:50:10;95673.19;;;16.74;100.00
8366;BME280;4220;42.502;24.188;2023-09-19T05:52:37;95678.63;;;16.79;100.00
8366;BME280;4220;42.502;24.188;2023-09-19T05:55:04;95672.28;;;16.69;100.00
8366;BME280;4220;42.502;24.188;2023-09-19T05:57:32;95670.84;;;16.78;100.00
8366;BME280;4220;42.502;24.188;2023-09-19T05:59:59;95667.88;;;16.96;100.00
8366;BME280;4220;42.502;24.188;2023-09-19T06:02:28;95666.78;;;17.14;100.00
8366;BME280;4220;42.502;24.188;2023-09-19T06:04:55;95657.56;;;17.05;100.00
8366;BME280;4220;42.502;24.188;2023-09-19T06:07:22;95657.91;;;16.91;100.00
8366;BME280;4220;42.502;24.188;2023-09-19T06:09:51;95660.53;;;16.70;100.00
8366;BME280;4220;42.502;24.188;2023-09-19T06:12:19;95654.31;;;16.86;100.00
8366;BME280;4220;42.502;24.188;2023-09-19T06:14:45;95663.69;;;17.22;100.00
8366;BME280;4220;42.502;24.188;2023-09-19T06:17:13;95663.53;;;17.33;100.00
8366;BME280;4220;42.502;24.188;2023-09-19T06:19:42;95664.31;;;17.29;100.00
8366;BME280;4220;42.502;24.188;2023-09-19T06:22:15;95654.13;;;17.31;100.00
8366;BME280;4220;42.502;24.188;2023-09-19T06:24:43;95662.75;;;17.54;100.00
8366;BME280;4220;42.502;24.188;2023-09-19T06:27:10;95653.13;;;17.80;100.00
8366;BME280;4220;42.502;24.188;2023-09-19T06:29:37;95653.38;;;18.05;100.00
8366;BME280;4220;42.502;24.188;2023-09-19T06:32:07;95571.94;;;17.63;100.00
8366;BME280;4220;42.502;24.188;2023-09-19T06:34:34;95629.56;;;18.14;100.00
8366;BME280;4220;42.502;24.188;2023-09-19T06:37:02;95648.59;;;18.39;100.00
8366;BME280;4220;42.502;24.188;2023-09-19T06:39:29;95625.75;;;18.37;100.00
8366;BME280;4220;42.502;24.188;2023-09-19T06:41:56;95635.00;;;18.51;100.00
8366;BME280;4220;42.502;24.188;2023-09-19T06:44:23;95634.84;;;18.62;100.00
8366;BME280;4220;42.502;24.188;2023-09-19T06:46:51;95644.03;;;18.71;100.00
8366;BME280;4220;42.502;24.188;2023-09-19T06:49:17;95551.00;;;18.28;100.00
8366;BME280;4220;42.502;24.188;2023-09-19T06:51:44;95645.72;;;18.87;100.00
8366;BME280;4220;42.502;24.188;2023-09-19T06:54:13;95609.00;;;18.56;100.00
8366;BME280;4220;42.502;24.188;2023-09-19T06:56:40;95646.84;;;18.91;100.00
8366;BME280;4220;42.502;24.188;2023-09-19T06:59:07;95642.16;;;19.14;100.00
8366;BME280;4220;42.502;24.188;2023-09-19T07:01:34;95644.38;;;19.32;100.00
8366;BME280;4220;42.502;24.188;2023-09-19T07:04:03;95647.97;;;19.47;100.00
8366;BME280;4220;42.502;24.188;2023-09-19T07:06:30;95641.84;;;19.62;100.00
8366;BME280;4220;42.502;24.188;2023-09-19T07:08:57;95655.34;;;19.77;100.00
8366;BME280;4220;42.502;24.188;2023-09-19T07:11:25;95647.75;;;19.59;100.00
8366;BME280;4220;42.502;24.188;2023-09-19T07:13:52;95654.97;;;19.53;100.00
8366;BME280;4220;42.502;24.188;2023-09-19T07:16:19;95650.09;;;19.40;100.00
8366;BME280;4220;42.502;24.188;2023-09-19T07:18:55;95643.66;;;19.51;100.00
8366;BME280;4220;42.502;24.188;2023-09-19T07:21:22;95654.72;;;19.50;100.00
8366;BME280;4220;42.502;24.188;2023-09-19T07:23:49;95649.28;;;19.40;100.00
8366;BME280;4220;42.502;24.188;2023-09-19T07:26:16;95656.59;;;19.49;100.00
8366;BME280;4220;42.502;24.188;2023-09-19T07:28:44;95654.78;;;19.70;100.00
8366;BME280;4220;42.502;24.188;2023-09-19T07:31:11;95650.03;;;20.02;100.00
8366;BME280;4220;42.502;24.188;2023-09-19T07:33:39;95600.47;;;20.03;100.00
8366;BME280;4220;42.502;24.188;2023-09-19T07:36:09;95654.94;;;20.71;100.00
8366;BME280;4220;42.502;24.188;2023-09-19T07:38:39;95653.84;;;20.97;100.00
8366;BME280;4220;42.502;24.188;2023-09-19T07:41:06;95651.13;;;21.12;100.00
8366;BME280;4220;42.502;24.188;2023-09-19T07:43:34;95639.53;;;21.12;100.00
8366;BME280;4220;42.502;24.188;2023-09-19T07:46:04;95635.75;;;21.23;100.00
8366;BME280;4220;42.502;24.188;2023-09-19T07:48:33;95631.69;;;21.20;100.00
8366;BME280;4220;42.502;24.188;2023-09-19T07:51:04;95623.66;;;21.05;100.00
8366;BME280;4220;42.502;24.188;2023-09-19T07:53:32;95637.63;;;21.27;100.00
8366;BME280;4220;42.502;24.188;2023-09-19T07:56:04;95641.31;;;21.46;100.00
8366;BME280;4220;42.502;24.188;2023-09-19T07:58:32;95635.06;;;21.56;100.00
8366;BME280;4220;42.502;24.188;2023-09-19T08:01:04;95633.63;;;21.79;99.52
8366;BME280;4220;42.502;24.188;2023-09-19T08:03:32;95636.78;;;21.96;98.75
8366;BME280;4220;42.502;24.188;2023-09-19T08:05:59;95635.06;;;22.10;96.16
8366;BME280;4220;42.502;24.188;2023-09-19T08:08:26;95638.50;;;22.26;95.39
8366;BME280;4220;42.502;24.188;2023-09-19T08:10:53;95628.22;;;21.79;96.23
8366;BME280;4220;42.502;24.188;2023-09-19T08:13:22;95625.59;;;21.64;97.49
8366;BME280;4220;42.502;24.188;2023-09-19T08:15:49;95632.84;;;21.68;96.77
8366;BME280;4220;42.502;24.188;2023-09-19T08:18:19;95629.78;;;21.90;96.56
8366;BME280;4220;42.502;24.188;2023-09-19T08:20:52;95622.53;;;21.85;95.77
8366;BME280;4220;42.502;24.188;2023-09-19T08:23:19;95622.06;;;21.63;97.38
8366;BME280;4220;42.502;24.188;2023-09-19T08:25:46;95620.63;;;21.86;96.58
8366;BME280;4220;42.502;24.188;2023-09-19T08:28:13;95593.09;;;21.84;95.35
8366;BME280;4220;42.502;24.188;2023-09-19T08:30:45;95624.28;;;22.10;95.18
8366;BME280;4220;42.502;24.188;2023-09-19T08:33:12;95615.56;;;22.18;94.48
8366;BME280;4220;42.502;24.188;2023-09-19T08:35:42;95588.78;;;21.78;95.44
8366;BME280;4220;42.502;24.188;2023-09-19T08:38:10;95618.88;;;22.10;95.19
8366;BME280;4220;42.502;24.188;2023-09-19T08:40:39;95625.28;;;22.19;94.39
8366;BME280;4220;42.502;24.188;2023-09-19T08:43:08;95593.47;;;22.11;93.35
8366;BME280;4220;42.502;24.188;2023-09-19T08:45:35;95622.06;;;22.17;93.57
8366;BME280;4220;42.502;24.188;2023-09-19T08:48:12;95619.72;;;22.39;92.22
8366;BME280;4220;42.502;24.188;2023-09-19T08:50:49;95621.59;;;22.44;91.46
8366;BME280;4220;42.502;24.188;2023-09-19T08:53:26;95606.88;;;22.60;91.11
8366;BME280;4220;42.502;24.188;2023-09-19T08:55:59;95603.41;;;23.12;89.18
8366;BME280;4220;42.502;24.188;2023-09-19T08:58:31;95609.88;;;23.34;87.29
8366;BME280;4220;42.502;24.188;2023-09-19T09:01:01;95598.41;;;23.24;86.34
8366;BME280;4220;42.502;24.188;2023-09-19T09:03:32;95606.47;;;23.29;86.19
8366;BME280;4220;42.502;24.188;2023-09-19T09:06:01;95608.41;;;23.47;85.47
8366;BME280;4220;42.502;24.188;2023-09-19T09:08:30;95609.75;;;23.50;84.82
8366;BME280;4220;42.502;24.188;2023-09-19T09:10:58;95613.72;;;23.57;84.01
8366;BME280;4220;42.502;24.188;2023-09-19T09:13:25;95600.94;;;23.63;83.54
8366;BME280;4220;42.502;24.188;2023-09-19T09:15:53;95617.63;;;23.88;83.32
8366;BME280;4220;42.502;24.188;2023-09-19T09:18:20;95607.34;;;24.09;83.42
8366;BME280;4220;42.502;24.188;2023-09-19T09:20:48;95611.06;;;23.94;82.92
8366;BME280;4220;42.502;24.188;2023-09-19T09:23:16;95605.72;;;23.47;84.46
8366;BME280;4220;42.502;24.188;2023-09-19T09:25:50;95591.38;;;23.23;85.54
8366;BME280;4220;42.502;24.188;2023-09-19T09:28:20;95588.97;;;22.93;86.17
8366;BME280;4220;42.502;24.188;2023-09-19T09:30:47;95573.06;;;22.62;88.24
8366;BME280;4220;42.502;24.188;2023-09-19T09:33:14;95583.91;;;22.86;88.15
8366;BME280;4220;42.502;24.188;2023-09-19T09:35:52;95585.31;;;23.31;86.10
8366;BME280;4220;42.502;24.188;2023-09-19T09:38:24;95580.38;;;23.80;84.33
8366;BME280;4220;42.502;24.188;2023-09-19T09:40:57;95591.25;;;24.18;82.83
8366;BME280;4220;42.502;24.188;2023-09-19T09:43:33;95585.13;;;24.44;81.79
8366;BME280;4220;42.502;24.188;2023-09-19T09:46:08;95578.06;;;24.76;80.45
8366;BME280;4220;42.502;24.188;2023-09-19T09:48:57;95584.16;;;25.00;79.88
8366;BME280;4220;42.502;24.188;2023-09-19T09:51:38;95585.16;;;25.04;78.48
8366;BME280;4220;42.502;24.188;2023-09-19T09:54:12;95576.84;;;24.68;80.21
8366;BME280;4220;42.502;24.188;2023-09-19T09:56:55;95559.75;;;24.67;80.56
8366;BME280;4220;42.502;24.188;2023-09-19T09:59:45;95573.81;;;24.69;79.56
8366;BME280;4220;42.502;24.188;2023-09-19T10:02:17;95561.91;;;24.84;78.77
8366;BME280;4220;42.502;24.188;2023-09-19T10:04:51;95565.69;;;25.15;78.49
8366;BME280;4220;42.502;24.188;2023-09-19T10:07:28;95567.59;;;25.42;76.78
8366;BME280;4220;42.502;24.188;2023-09-19T10:10:01;95570.31;;;25.15;77.66
8366;BME280;4220;42.502;24.188;2023-09-19T10:12:47;95563.25;;;25.14;77.79
8366;BME280;4220;42.502;24.188;2023-09-19T10:15:16;95568.28;;;25.07;77.90
8366;BME280;4220;42.502;24.188;2023-09-19T10:17:46;95556.63;;;25.06;77.16
8366;BME280;4220;42.502;24.188;2023-09-19T10:20:14;95558.63;;;25.14;76.70
8366;BME280;4220;42.502;24.188;2023-09-19T10:23:00;95549.81;;;25.22;76.52
8366;BME280;4220;42.502;24.188;2023-09-19T10:25:28;95545.84;;;25.28;76.10
8366;BME280;4220;42.502;24.188;2023-09-19T10:27:57;95542.34;;;25.42;75.02
8366;BME280;4220;42.502;24.188;2023-09-19T10:30:29;95558.25;;;25.62;74.39
8366;BME280;4220;42.502;24.188;2023-09-19T10:33:00;95550.44;;;25.82;73.35
8366;BME280;4220;42.502;24.188;2023-09-19T10:35:28;95548.31;;;25.93;72.74
8366;BME280;4220;42.502;24.188;2023-09-19T10:37:59;95551.00;;;25.30;74.68
8366;BME280;4220;42.502;24.188;2023-09-19T10:40:29;95553.59;;;24.94;75.73
8366;BME280;4220;42.502;24.188;2023-09-19T10:43:01;95539.28;;;24.61;76.55
8366;BME280;4220;42.502;24.188;2023-09-19T10:45:31;95523.19;;;24.65;76.57
8366;BME280;4220;42.502;24.188;2023-09-19T10:47:58;95531.69;;;24.91;75.86
8366;BME280;4220;42.502;24.188;2023-09-19T10:50:27;95530.91;;;25.17;74.77
8366;BME280;4220;42.502;24.188;2023-09-19T10:52:59;95524.13;;;25.56;73.68
8366;BME280;4220;42.502;24.188;2023-09-19T10:55:32;95522.16;;;25.83;72.39
8366;BME280;4220;42.502;24.188;2023-09-19T10:58:01;95524.38;;;26.17;71.24
8366;BME280;4220;42.502;24.188;2023-09-19T11:00:30;95527.06;;;26.61;69.96
8366;BME280;4220;42.502;24.188;2023-09-19T11:03:19;95528.53;;;26.90;68.29
8366;BME280;4220;42.502;24.188;2023-09-19T11:06:08;95530.09;;;27.21;67.13
8366;BME280;4220;42.502;24.188;2023-09-19T11:09:01;95524.16;;;27.59;65.55
8366;BME280;4220;42.502;24.188;2023-09-19T11:11:50;95509.56;;;27.63;65.45
8366;BME280;4220;42.502;24.188;2023-09-19T11:14:30;95520.47;;;27.63;65.21
8366;BME280;4220;42.502;24.188;2023-09-19T11:17:37;95509.59;;;27.80;64.78
8366;BME280;4220;42.502;24.188;2023-09-19T11:20:20;95512.34;;;28.15;63.99
8366;BME280;4220;42.502;24.188;2023-09-19T11:23:21;95502.97;;;28.67;62.11
8366;BME280;4220;42.502;24.188;2023-09-19T11:26:03;95502.38;;;28.99;60.60
8366;BME280;4220;42.502;24.188;2023-09-19T11:28:33;95502.69;;;29.06;59.53
8366;BME280;4220;42.502;24.188;2023-09-19T11:40:28;95487.66;;;28.92;58.52
8366;BME280;4220;42.502;24.188;2023-09-19T11:42:56;95481.41;;;29.12;58.32
8366;BME280;4220;42.502;24.188;2023-09-19T11:48:29;95474.00;;;29.71;56.01
8366;BME280;4220;42.502;24.188;2023-09-19T11:50:58;95475.09;;;29.58;55.61
8366;BME280;4220;42.502;24.188;2023-09-19T11:53:31;95469.66;;;29.29;56.94
8366;BME280;4220;42.502;24.188;2023-09-19T11:56:01;95472.63;;;29.65;56.01
8366;BME280;4220;42.502;24.188;2023-09-19T11:58:37;95460.44;;;29.83;55.44
8366;BME280;4220;42.502;24.188;2023-09-19T12:01:05;95459.63;;;30.03;55.81
8366;BME280;4220;42.502;24.188;2023-09-19T12:03:42;95460.63;;;30.19;54.02
8366;BME280;4220;42.502;24.188;2023-09-19T12:06:12;95452.38;;;29.37;56.11
8366;BME280;4220;42.502;24.188;2023-09-19T12:08:41;95445.59;;;28.76;58.17
8366;BME280;4220;42.502;24.188;2023-09-19T12:11:13;95444.03;;;28.66;58.18
8366;BME280;4220;42.502;24.188;2023-09-19T12:13:44;95447.09;;;29.02;57.46
8366;BME280;4220;42.502;24.188;2023-09-19T12:16:13;95447.19;;;29.23;57.31
8366;BME280;4220;42.502;24.188;2023-09-19T12:18:45;95438.09;;;29.81;56.01
8366;BME280;4220;42.502;24.188;2023-09-19T12:21:33;95436.28;;;30.71;54.02
8366;BME280;4220;42.502;24.188;2023-09-19T12:24:06;95433.41;;;31.40;51.88
8366;BME280;4220;42.502;24.188;2023-09-19T12:26:40;95445.03;;;31.86;50.11
8366;BME280;4220;42.502;24.188;2023-09-19T12:29:13;95438.03;;;32.00;48.89
8366;BME280;4220;42.502;24.188;2023-09-19T12:31:53;95434.13;;;31.61;49.36
8366;BME280;4220;42.502;24.188;2023-09-19T12:34:25;95430.22;;;31.62;49.38
8366;BME280;4220;42.502;24.188;2023-09-19T12:37:07;95430.41;;;31.82;48.76
8366;BME280;4220;42.502;24.188;2023-09-19T12:39:39;95391.66;;;31.31;49.99
8366;BME280;4220;42.502;24.188;2023-09-19T12:42:08;95428.44;;;31.94;48.99
8366;BME280;4220;42.502;24.188;2023-09-19T12:44:37;95416.41;;;32.26;48.21
8366;BME280;4220;42.502;24.188;2023-09-19T12:47:11;95421.09;;;32.54;47.05
8366;BME280;4220;42.502;24.188;2023-09-19T12:50:07;95416.31;;;32.97;45.53
8366;BME280;4220;42.502;24.188;2023-09-19T12:52:39;95411.53;;;33.10;45.48
8366;BME280;4220;42.502;24.188;2023-09-19T12:55:07;95407.41;;;33.35;44.22
8366;BME280;4220;42.502;24.188;2023-09-19T12:57:36;95402.13;;;33.27;44.92
8366;BME280;4220;42.502;24.188;2023-09-19T13:00:05;95398.03;;;33.36;45.07
8366;BME280;4220;42.502;24.188;2023-09-19T13:02:36;95394.41;;;33.67;43.51
8366;BME280;4220;42.502;24.188;2023-09-19T13:05:03;95393.13;;;33.80;42.68
8366;BME280;4220;42.502;24.188;2023-09-19T13:07:43;95400.66;;;33.83;42.14
8366;BME280;4220;42.502;24.188;2023-09-19T13:10:12;95390.88;;;33.32;43.35
8366;BME280;4220;42.502;24.188;2023-09-19T13:12:43;95379.91;;;32.85;44.15
8366;BME280;4220;42.502;24.188;2023-09-19T13:15:14;95373.06;;;32.94;44.16
8366;BME280;4220;42.502;24.188;2023-09-19T13:17:46;95374.06;;;33.37;43.53
8366;BME280;4220;42.502;24.188;2023-09-19T13:20:21;95347.47;;;33.79;42.25
8366;BME280;4220;42.502;24.188;2023-09-19T13:22:54;95375.88;;;34.22;42.18
8366;BME280;4220;42.502;24.188;2023-09-19T13:25:24;95369.06;;;33.96;42.37
8366;BME280;4220;42.502;24.188;2023-09-19T13:27:53;95369.06;;;33.58;42.97
8366;BME280;4220;42.502;24.188;2023-09-19T13:30:22;95365.31;;;33.00;43.88
8366;BME280;4220;42.502;24.188;2023-09-19T13:32:50;95367.94;;;32.77;44.98
8366;BME280;4220;42.502;24.188;2023-09-19T13:35:18;95361.72;;;32.80;43.92